createdAt,value
2019-04-09T00:00:03.986Z,27.50
2019-04-09T00:01:03.792Z,28.30
2019-04-09T00:02:03.351Z,29.20
2019-04-09T00:03:03.311Z,29.60
2019-04-09T00:04:03.273Z,30.50
2019-04-09T00:05:03.235Z,29.40
2019-04-09T00:06:03.201Z,31.30
2019-04-09T00:07:04.013Z,30.90
2019-04-09T00:08:05.357Z,30.50
2019-04-09T00:09:03.084Z,30.20
2019-04-09T00:10:03.047Z,32.40
2019-04-09T00:11:03.793Z,32.30
2019-04-09T00:12:02.980Z,32.60
2019-04-09T00:13:03.013Z,33.00
2019-04-09T00:14:03.666Z,33.20
2019-04-09T00:15:03.076Z,32.70
2019-04-09T00:16:02.822Z,32.60
2019-04-09T00:17:03.792Z,32.70
2019-04-09T00:18:03.781Z,32.20
2019-04-09T00:19:02.722Z,33.30
2019-04-09T00:20:02.675Z,33.70
2019-04-09T00:21:02.637Z,32.50
2019-04-09T00:22:02.610Z,33.30
2019-04-09T00:23:02.557Z,32.10
2019-04-09T00:24:02.944Z,33.40
2019-04-09T00:25:02.486Z,33.70
2019-04-09T00:26:02.447Z,35.30
2019-04-09T00:27:02.408Z,34.60
2019-04-09T00:28:03.478Z,35.40
2019-04-09T00:29:02.354Z,35.00
2019-04-09T00:30:02.492Z,35.30
2019-04-09T00:31:02.982Z,35.80
2019-04-09T00:32:02.219Z,37.80
2019-04-09T00:33:02.182Z,38.70
2019-04-09T00:34:02.739Z,39.40
2019-04-09T00:35:02.759Z,37.50
2019-04-09T00:36:02.066Z,37.90
2019-04-09T00:37:02.026Z,38.60
2019-04-09T00:38:03.095Z,38.40
2019-04-09T00:39:01.954Z,37.50
2019-04-09T00:40:01.930Z,38.60
2019-04-09T00:41:02.639Z,38.80
2019-04-09T00:42:02.577Z,40.30
2019-04-09T00:43:02.472Z,39.30
2019-04-09T00:44:01.897Z,39.10
2019-04-09T00:45:01.826Z,39.70
2019-04-09T00:46:01.691Z,40.30
2019-04-09T00:47:01.852Z,41.20
2019-04-09T00:48:01.611Z,40.90
2019-04-09T00:49:01.574Z,41.20
2019-04-09T00:50:01.550Z,42.60
2019-04-09T00:51:01.498Z,42.90
2019-04-09T00:52:01.935Z,43.70
2019-04-09T00:53:01.427Z,43.50
2019-04-09T00:54:01.382Z,43.10
2019-04-09T00:55:02.171Z,42.00
2019-04-09T00:56:02.123Z,43.80
2019-04-09T00:57:05.847Z,44.70
2019-04-09T00:58:01.517Z,44.50
2019-04-09T00:59:01.312Z,43.10
2019-04-09T01:00:01.158Z,44.00
2019-04-09T01:01:01.469Z,45.30
2019-04-09T01:02:01.258Z,45.10
2019-04-09T01:03:01.316Z,44.00
2019-04-09T01:04:01.331Z,44.30
2019-04-09T01:05:00.981Z,44.50
2019-04-09T01:06:00.935Z,45.10
2019-04-09T01:07:00.897Z,45.80
2019-04-09T01:08:00.856Z,44.60
2019-04-09T01:09:01.297Z,46.50
2019-04-09T01:10:01.863Z,48.00
2019-04-09T01:11:01.107Z,50.40
2019-04-09T01:12:01.629Z,48.70
2019-04-09T01:13:00.663Z,48.30
2019-04-09T01:14:00.626Z,49.10
2019-04-09T01:15:00.591Z,48.50
2019-04-09T01:16:01.679Z,50.00
2019-04-09T01:17:00.683Z,51.20
2019-04-09T01:18:00.698Z,52.50
2019-04-09T01:19:09.900Z,52.90
2019-04-09T01:20:00.614Z,52.30
2019-04-09T01:21:00.633Z,52.20
2019-04-09T01:22:00.326Z,52.00
2019-04-09T01:23:00.289Z,52.50
2019-04-09T01:24:00.253Z,52.30
2019-04-09T01:25:00.218Z,53.90
2019-04-09T01:26:00.187Z,53.00
2019-04-09T01:27:10.575Z,54.30
2019-04-09T01:28:00.103Z,54.00
2019-04-09T01:29:00.065Z,52.50
2019-04-09T01:30:00.043Z,52.30
2019-04-09T01:31:00.931Z,53.70
2019-04-09T01:32:00.133Z,55.20
2019-04-09T01:33:00.170Z,53.50
2019-04-09T01:33:59.873Z,53.60
2019-04-09T01:34:59.836Z,54.60
2019-04-09T01:35:59.864Z,54.50
2019-04-09T01:36:59.958Z,55.10
2019-04-09T01:37:59.783Z,54.70
2019-04-09T01:38:59.686Z,52.50
2019-04-09T01:39:59.647Z,54.90
2019-04-09T01:40:59.606Z,55.20
2019-04-09T01:42:00.291Z,54.30
2019-04-09T01:43:00.061Z,56.70
2019-04-09T01:43:59.497Z,56.70
2019-04-09T01:44:59.455Z,59.10
2019-04-09T01:45:59.877Z,56.50
2019-04-09T01:46:59.930Z,58.20
2019-04-09T01:47:59.346Z,57.40
2019-04-09T01:48:59.312Z,55.60
2019-04-09T01:49:59.274Z,56.90
2019-04-09T01:50:59.234Z,58.30
2019-04-09T01:51:59.839Z,57.00
2019-04-09T01:52:59.157Z,56.50
2019-04-09T01:53:59.150Z,57.90
2019-04-09T01:54:59.080Z,56.50
2019-04-09T01:55:59.303Z,58.10
2019-04-09T01:56:59.970Z,58.20
2019-04-09T01:57:59.923Z,58.10
2019-04-09T01:58:59.686Z,58.60
2019-04-09T01:59:59.012Z,58.20
2019-04-09T02:00:59.018Z,59.50
2019-04-09T02:01:59.133Z,60.00
2019-04-09T02:02:58.782Z,59.40
2019-04-09T02:03:58.741Z,59.00
2019-04-09T02:04:58.701Z,59.60
2019-04-09T02:05:58.663Z,60.40
2019-04-09T02:06:59.540Z,57.80
2019-04-09T02:07:59.487Z,60.70
2019-04-09T02:08:58.555Z,59.40
2019-04-09T02:09:58.521Z,60.20
2019-04-09T02:10:58.480Z,60.20
2019-04-09T02:11:58.439Z,61.10
2019-04-09T02:12:58.397Z,60.60
2019-04-09T02:13:58.745Z,59.60
2019-04-09T02:14:58.598Z,59.30
2019-04-09T02:15:58.287Z,61.10
2019-04-09T02:16:58.248Z,60.80
2019-04-09T02:17:58.213Z,59.60
2019-04-09T02:18:58.174Z,60.80
2019-04-09T02:19:58.574Z,59.20
2019-04-09T02:20:58.100Z,58.20
2019-04-09T02:21:58.067Z,60.50
2019-04-09T02:22:58.867Z,59.50
2019-04-09T02:23:58.778Z,59.10
2019-04-09T02:24:58.426Z,61.60
2019-04-09T02:25:57.909Z,62.40
2019-04-09T02:26:57.872Z,60.10
2019-04-09T02:27:57.835Z,62.20
2019-04-09T02:28:58.225Z,62.90
2019-04-09T02:29:57.788Z,62.70
2019-04-09T02:30:57.810Z,62.10
2019-04-09T02:31:57.696Z,62.50
2019-04-09T02:32:58.667Z,61.60
2019-04-09T02:33:58.554Z,61.70
2019-04-09T02:34:57.571Z,63.90
2019-04-09T02:35:57.545Z,60.90
2019-04-09T02:36:59.010Z,62.60
2019-04-09T02:37:57.550Z,61.70
2019-04-09T02:38:57.419Z,62.30
2019-04-09T02:39:57.426Z,63.60
2019-04-09T02:40:57.346Z,63.40
2019-04-09T02:41:57.307Z,62.20
2019-04-09T02:42:57.270Z,61.30
2019-04-09T02:43:57.232Z,61.50
2019-04-09T02:44:57.739Z,62.50
2019-04-09T02:45:57.748Z,61.90
2019-04-09T02:46:57.120Z,62.40
2019-04-09T02:47:57.077Z,62.80
2019-04-09T02:48:57.038Z,64.30
2019-04-09T02:49:57.001Z,64.30
2019-04-09T02:50:57.506Z,63.80
2019-04-09T02:51:56.932Z,63.30
2019-04-09T02:52:56.892Z,63.40
2019-04-09T02:53:56.855Z,62.90
2019-04-09T02:54:56.815Z,65.50
2019-04-09T02:55:56.775Z,63.70
2019-04-09T02:56:56.971Z,63.10
2019-04-09T02:57:57.362Z,65.60
2019-04-09T02:58:56.664Z,64.10
2019-04-09T02:59:56.864Z,63.20
2019-04-09T03:00:56.817Z,67.10
2019-04-09T03:01:56.948Z,62.90
2019-04-09T03:02:56.828Z,63.30
2019-04-09T03:03:56.475Z,64.30
2019-04-09T03:04:56.438Z,67.20
2019-04-09T03:05:56.402Z,67.00
2019-04-09T03:06:56.798Z,65.50
2019-04-09T03:07:56.623Z,67.80
2019-04-09T03:08:56.281Z,67.80
2019-04-09T03:09:56.242Z,67.60
2019-04-09T03:10:56.208Z,68.70
2019-04-09T03:11:56.405Z,69.00
2019-04-09T03:12:56.136Z,68.10
2019-04-09T03:13:56.097Z,66.40
2019-04-09T03:14:56.058Z,67.40
2019-04-09T03:15:56.425Z,67.60
2019-04-09T03:16:57.032Z,64.70
2019-04-09T03:17:56.155Z,68.80
2019-04-09T03:18:56.212Z,69.60
2019-04-09T03:19:55.866Z,68.80
2019-04-09T03:20:55.826Z,70.00
2019-04-09T03:21:56.581Z,70.60
2019-04-09T03:22:56.034Z,72.50
2019-04-09T03:23:55.972Z,70.40
2019-04-09T03:37:51.189Z,56.80
2019-04-09T03:38:51.066Z,65.80
2019-04-09T03:39:50.406Z,74.60
2019-04-09T03:40:50.364Z,73.00
2019-04-09T03:41:50.321Z,72.80
2019-04-09T03:42:50.278Z,71.90
2019-04-09T03:43:50.549Z,72.20
2019-04-09T03:44:50.193Z,72.00
2019-04-09T03:45:50.152Z,69.50
2019-04-09T03:46:50.115Z,70.30
2019-04-09T03:47:50.623Z,71.20
2019-04-09T03:48:50.347Z,69.00
2019-04-09T03:49:50.295Z,65.80
2019-04-09T03:50:50.400Z,69.20
2019-04-09T03:51:49.922Z,67.60
2019-04-09T03:52:49.876Z,69.30
2019-04-09T03:53:49.944Z,68.90
2019-04-09T03:54:49.801Z,68.70
2019-04-09T03:55:49.761Z,67.60
2019-04-09T03:56:50.559Z,67.40
2019-04-09T03:57:50.606Z,68.50
2019-04-09T03:58:49.644Z,67.20
2019-04-09T03:59:49.791Z,68.40
2019-04-09T04:00:50.238Z,67.10
2019-04-09T04:01:49.531Z,67.20
2019-04-09T04:02:49.496Z,68.10
2019-04-09T04:03:50.304Z,67.70
2019-04-09T04:04:50.324Z,69.50
2019-04-09T04:05:49.373Z,70.80
2019-04-09T04:06:49.338Z,68.60
2019-04-09T04:07:50.407Z,70.50
2019-04-09T04:08:49.711Z,69.40
2019-04-09T04:09:49.729Z,69.50
2019-04-09T04:10:49.927Z,69.10
2019-04-09T04:11:50.068Z,67.80
2019-04-09T04:12:50.014Z,66.60
2019-04-09T04:13:49.070Z,70.10
2019-04-09T04:14:50.099Z,68.70
2019-04-09T04:15:49.003Z,67.70
2019-04-09T04:16:48.951Z,68.10
2019-04-09T04:17:49.008Z,65.70
2019-04-09T04:18:48.876Z,64.90
2019-04-09T04:19:48.844Z,64.00
2019-04-09T04:20:49.465Z,67.30
2019-04-09T04:21:48.797Z,63.90
2019-04-09T04:22:49.580Z,64.80
2019-04-09T04:23:49.510Z,63.30
2019-04-09T04:24:49.473Z,65.40
2019-04-09T04:25:48.611Z,66.00
2019-04-09T04:26:49.003Z,66.00
2019-04-09T04:27:48.536Z,66.70
2019-04-09T04:30:21.346Z,65.30
2019-04-09T04:31:20.519Z,65.60
2019-04-09T04:32:20.479Z,64.10
2019-04-09T04:33:20.947Z,63.70
2019-04-09T04:34:20.907Z,62.50
2019-04-09T04:35:20.367Z,63.80
2019-04-09T04:36:21.133Z,63.80
2019-04-09T04:37:20.495Z,62.20
2019-04-09T04:38:20.787Z,61.20
2019-04-09T04:39:20.842Z,60.10
2019-04-09T04:40:22.281Z,61.30
2019-04-09T04:41:21.135Z,61.90
2019-04-09T04:42:20.099Z,61.80
2019-04-09T04:43:21.041Z,61.10
2019-04-09T04:44:20.068Z,60.20
2019-04-09T04:45:20.013Z,60.70
2019-04-09T04:46:19.945Z,62.90
2019-04-09T04:47:19.914Z,61.20
2019-04-09T04:48:20.379Z,62.40
2019-04-09T04:49:20.612Z,60.80
2019-04-09T04:50:19.799Z,64.40
2019-04-09T04:51:20.270Z,63.70
2019-04-09T04:52:19.715Z,64.30
2019-04-09T04:53:19.688Z,61.80
2019-04-09T04:54:19.653Z,60.00
2019-04-09T04:55:19.605Z,58.70
2019-04-09T04:56:29.927Z,58.40
2019-04-09T04:58:35.985Z,58.90
2019-04-09T04:59:24.279Z,56.40
2019-04-09T05:00:24.779Z,59.30
2019-04-09T05:01:24.094Z,57.90
2019-04-09T05:02:24.744Z,61.00
2019-04-09T05:03:24.232Z,60.40
2019-04-09T05:04:23.717Z,60.60
2019-04-09T05:05:24.555Z,62.50
2019-04-09T05:06:24.039Z,62.20
2019-04-09T05:07:34.822Z,60.50
2019-04-09T05:08:23.712Z,61.80
2019-04-09T05:09:24.223Z,60.70
2019-04-09T05:10:23.563Z,59.60
2019-04-09T05:11:24.210Z,61.70
2019-04-09T05:12:23.657Z,60.90
2019-04-09T05:13:23.378Z,59.90
2019-04-09T05:14:23.333Z,59.90
2019-04-09T05:15:23.407Z,60.80
2019-04-09T05:16:24.170Z,61.90
2019-04-09T05:17:23.222Z,60.20
2019-04-09T05:18:23.183Z,59.90
2019-04-09T05:19:23.144Z,59.40
2019-04-09T05:20:23.102Z,58.30
2019-04-09T05:21:24.026Z,59.00
2019-04-09T05:22:23.155Z,59.70
2019-04-09T05:23:22.991Z,59.70
2019-04-09T05:24:22.956Z,60.10
2019-04-09T05:25:23.056Z,58.70
2019-04-09T05:26:22.879Z,59.20
2019-04-09T05:27:22.838Z,59.20
2019-04-09T05:28:22.798Z,60.60
2019-04-09T05:29:22.763Z,60.20
2019-04-09T05:30:22.786Z,61.10
2019-04-09T05:31:23.057Z,59.50
2019-04-09T05:32:23.489Z,58.60
2019-04-09T05:33:22.722Z,59.30
2019-04-09T05:34:23.328Z,60.30
2019-04-09T05:35:23.137Z,59.50
2019-04-09T05:36:23.481Z,59.70
2019-04-09T05:37:22.748Z,60.20
2019-04-09T05:38:22.420Z,60.10
2019-04-09T05:39:22.382Z,61.00
2019-04-09T05:40:23.453Z,59.00
2019-04-09T05:41:22.306Z,59.40
2019-04-09T05:42:23.319Z,60.70
2019-04-09T05:43:22.265Z,60.10
2019-04-09T05:44:23.716Z,62.00
2019-04-09T05:45:22.151Z,61.60
2019-04-09T05:46:22.112Z,61.50
2019-04-09T05:47:22.073Z,62.40
2019-04-09T05:48:22.036Z,62.10
2019-04-09T05:49:22.117Z,62.00
2019-04-09T05:50:21.964Z,61.20
2019-04-09T05:51:21.921Z,62.50
2019-04-09T05:52:22.756Z,61.40
2019-04-09T05:53:21.975Z,62.40
2019-04-09T05:54:21.811Z,63.00
2019-04-09T05:55:22.671Z,62.60
2019-04-09T05:56:22.173Z,62.80
2019-04-09T05:57:22.137Z,63.00
2019-04-09T05:58:21.654Z,61.90
2019-04-09T05:59:21.619Z,61.00
2019-04-09T06:00:21.580Z,61.10
2019-04-09T06:01:22.689Z,62.60
2019-04-09T06:02:21.507Z,63.50
2019-04-09T06:03:21.963Z,63.00
2019-04-09T06:04:21.430Z,62.20
2019-04-09T06:05:21.389Z,63.60
2019-04-09T06:06:21.962Z,62.50
2019-04-09T06:07:21.317Z,63.80
2019-04-09T06:08:23.561Z,61.60
2019-04-09T06:09:21.237Z,62.30
2019-04-09T06:10:21.922Z,61.50
2019-04-09T06:11:21.158Z,62.30
2019-04-09T06:12:21.127Z,64.50
2019-04-09T06:13:21.676Z,64.40
2019-04-09T06:14:21.137Z,64.40
2019-04-09T06:15:21.172Z,63.10
2019-04-09T06:16:20.971Z,64.60
2019-04-09T06:17:21.105Z,65.70
2019-04-09T06:18:21.730Z,63.60
2019-04-09T06:19:21.018Z,65.00
2019-04-09T06:20:21.092Z,64.10
2019-04-09T06:21:26.144Z,64.40
2019-04-09T06:22:21.219Z,64.10
2019-04-09T06:23:21.664Z,64.10
2019-04-09T06:24:20.776Z,63.60
2019-04-09T06:25:22.565Z,64.60
2019-04-09T06:26:20.593Z,64.60
2019-04-09T06:27:20.568Z,66.10
2019-04-09T06:28:20.514Z,63.10
2019-04-09T06:29:23.175Z,65.30
2019-04-09T06:30:20.434Z,64.60
2019-04-09T06:31:20.397Z,66.60
2019-04-09T06:32:20.360Z,66.50
2019-04-09T06:33:20.324Z,66.50
2019-04-09T06:34:20.802Z,66.50
2019-04-09T06:35:21.392Z,64.30
2019-04-09T06:36:20.855Z,65.00
2019-04-09T06:37:20.734Z,64.40
2019-04-09T06:38:20.130Z,66.50
2019-04-09T06:39:20.849Z,66.50
2019-04-09T06:40:20.151Z,66.40
2019-04-09T06:41:20.019Z,62.70
2019-04-09T06:42:19.980Z,62.00
2019-04-09T06:43:19.942Z,62.00
2019-04-09T06:44:20.941Z,61.10
2019-04-09T06:45:19.871Z,61.90
2019-04-09T06:46:19.980Z,60.10
2019-04-09T06:47:20.297Z,61.10
2019-04-09T06:48:19.756Z,62.50
2019-04-09T06:49:19.866Z,59.70
2019-04-09T06:50:20.731Z,59.70
2019-04-09T06:51:30.594Z,63.50
2019-04-09T06:52:20.120Z,64.80
2019-04-09T06:53:19.568Z,64.90
2019-04-09T06:54:19.883Z,62.60
2019-04-09T06:55:19.491Z,61.50
2019-04-09T06:56:19.767Z,65.10
2019-04-09T06:57:19.417Z,63.20
2019-04-09T06:58:20.482Z,65.50
2019-04-09T06:59:26.788Z,64.60
2019-04-09T07:00:21.909Z,66.60
2019-04-09T07:01:20.379Z,70.60
2019-04-09T07:02:19.706Z,71.50
2019-04-09T07:03:19.187Z,70.40
2019-04-09T07:04:19.152Z,72.70
2019-04-09T07:05:19.121Z,74.80
2019-04-09T07:06:19.937Z,79.80
2019-04-09T07:07:19.882Z,77.80
2019-04-09T07:08:19.001Z,77.80
2019-04-09T07:09:21.015Z,78.70
2019-04-09T07:10:18.923Z,79.60
2019-04-09T07:11:21.206Z,78.70
2019-04-09T07:12:19.722Z,78.80
2019-04-09T07:13:19.734Z,80.10
2019-04-09T07:14:18.775Z,71.80
2019-04-09T07:15:19.538Z,68.10
2019-04-09T07:16:19.230Z,68.40
2019-04-09T07:17:18.662Z,66.30
2019-04-09T07:18:18.911Z,71.90
2019-04-09T07:19:18.865Z,72.80
2019-04-09T07:20:19.928Z,73.20
2019-04-09T07:21:18.511Z,77.10
2019-04-09T07:22:19.218Z,80.40
2019-04-09T07:23:18.626Z,80.90
2019-04-09T07:24:18.402Z,83.90
2019-04-09T07:25:19.347Z,83.00
2019-04-09T07:26:18.544Z,84.90
2019-04-09T07:27:21.233Z,83.70
2019-04-09T07:28:19.068Z,85.50
2019-04-09T07:29:18.214Z,85.90
2019-04-09T07:30:22.759Z,86.70
2019-04-09T07:31:18.589Z,86.40
2019-04-09T07:32:18.100Z,91.30
2019-04-09T07:33:19.533Z,92.00
2019-04-09T07:34:19.289Z,91.20
2019-04-09T07:35:18.219Z,99.50
2019-04-09T07:36:17.951Z,98.90
2019-04-09T07:37:18.631Z,102.20
2019-04-09T07:38:18.387Z,103.10
2019-04-09T07:39:18.541Z,98.60
2019-04-09T07:40:17.853Z,102.20
2019-04-09T07:41:18.422Z,103.90
2019-04-09T07:42:18.233Z,98.40
2019-04-09T07:43:22.835Z,102.60
2019-04-09T07:44:19.576Z,103.90
2019-04-09T07:45:22.073Z,103.50
2019-04-09T07:46:17.576Z,104.60
2019-04-09T07:47:21.527Z,103.10
2019-04-09T07:48:17.625Z,103.60
2019-04-09T07:49:17.474Z,102.80
2019-04-09T07:50:17.752Z,100.40
2019-04-09T07:51:20.609Z,101.80
2019-04-09T07:52:17.928Z,99.70
2019-04-09T07:53:17.884Z,102.60
2019-04-09T07:54:18.030Z,98.90
2019-04-09T07:55:21.712Z,97.10
2019-04-09T07:56:17.646Z,92.50
2019-04-09T07:57:17.162Z,95.10
2019-04-09T07:58:17.126Z,102.70
2019-04-09T07:59:22.625Z,100.40
2019-04-09T08:00:22.565Z,100.20
2019-04-09T08:01:18.189Z,104.00
2019-04-09T08:02:20.694Z,97.70
2019-04-09T08:03:16.939Z,99.70
2019-04-09T08:04:20.285Z,96.60
2019-04-09T08:05:17.536Z,101.20
2019-04-09T08:06:17.511Z,98.30
2019-04-09T08:07:19.643Z,98.20
2019-04-09T08:08:16.905Z,101.10
2019-04-09T08:09:17.122Z,99.90
2019-04-09T08:10:17.702Z,101.10
2019-04-09T08:11:16.639Z,99.90
2019-04-09T08:12:16.660Z,99.80
2019-04-09T08:13:18.623Z,101.70
2019-04-09T08:14:17.425Z,96.00
2019-04-09T08:15:16.490Z,100.00
2019-04-09T08:16:17.046Z,97.10
2019-04-09T08:17:17.433Z,98.90
2019-04-09T08:18:20.238Z,102.00
2019-04-09T08:19:18.268Z,100.20
2019-04-09T08:20:25.316Z,98.90
2019-04-09T08:21:16.265Z,98.10
2019-04-09T08:22:16.309Z,100.00
2019-04-09T08:23:18.249Z,98.30
2019-04-09T08:24:18.280Z,104.30
2019-04-09T08:25:16.761Z,100.40
2019-04-09T08:26:16.810Z,101.70
2019-04-09T08:27:16.438Z,102.80
2019-04-09T08:28:20.320Z,100.40
2019-04-09T08:29:16.860Z,102.80
2019-04-09T08:30:23.785Z,100.40
2019-04-09T08:31:19.526Z,102.40
2019-04-09T08:32:19.765Z,104.70
2019-04-09T08:33:18.044Z,100.80
2019-04-09T08:34:16.625Z,101.00
2019-04-09T08:35:15.766Z,103.00
2019-04-09T08:36:16.980Z,100.80
2019-04-09T08:37:19.328Z,104.80
2019-04-09T08:38:15.997Z,101.80
2019-04-09T08:39:16.628Z,104.00
2019-04-09T08:40:16.417Z,102.10
2019-04-09T08:41:19.366Z,105.50
2019-04-09T08:42:15.485Z,102.90
2019-04-09T08:43:16.168Z,103.60
2019-04-09T08:44:17.199Z,102.90
2019-04-09T08:45:15.492Z,104.90
2019-04-09T08:46:15.735Z,104.30
2019-04-09T08:47:15.331Z,103.00
2019-04-09T08:48:16.053Z,104.50
2019-04-09T08:49:17.803Z,103.90
2019-04-09T08:50:15.188Z,104.70
2019-04-09T08:51:15.146Z,101.20
2019-04-09T08:52:15.110Z,104.20
2019-04-09T08:53:17.285Z,104.10
2019-04-09T08:54:16.837Z,102.80
2019-04-09T08:55:15.734Z,104.70
2019-04-09T08:56:15.586Z,105.50
2019-04-09T08:57:16.788Z,104.60
2019-04-09T08:58:15.374Z,103.20
2019-04-09T08:59:15.585Z,104.00
2019-04-09T09:00:25.422Z,102.80
2019-04-09T09:01:40.283Z,106.00
2019-04-09T09:02:23.115Z,102.80
2019-04-09T09:03:17.597Z,104.90
2019-04-09T09:04:16.212Z,103.90
2019-04-09T09:05:17.899Z,106.20
2019-04-09T09:06:16.128Z,106.20
2019-04-09T09:07:16.715Z,105.70
2019-04-09T09:08:14.690Z,106.80
2019-04-09T09:09:14.474Z,104.80
2019-04-09T09:10:17.993Z,106.30
2019-04-09T09:11:14.398Z,105.80
2019-04-09T09:12:14.856Z,105.40
2019-04-09T09:13:18.329Z,104.10
2019-04-09T09:14:14.293Z,106.20
2019-04-09T09:15:14.904Z,106.80
2019-04-09T09:16:14.216Z,107.80
2019-04-09T09:17:14.802Z,110.40
2019-04-09T09:18:14.143Z,110.00
2019-04-09T09:19:14.192Z,111.10
2019-04-09T09:20:14.246Z,110.20
2019-04-09T09:21:26.593Z,107.00
2019-04-09T09:22:14.413Z,107.30
2019-04-09T09:23:13.951Z,107.20
2019-04-09T09:24:18.300Z,108.60
2019-04-09T09:25:13.879Z,108.80
2019-04-09T09:26:13.845Z,107.00
2019-04-09T09:27:15.483Z,109.10
2019-04-09T09:28:13.769Z,107.50
2019-04-09T09:29:13.728Z,107.00
2019-04-09T09:30:13.709Z,105.80
2019-04-09T09:31:22.493Z,108.50
2019-04-09T09:32:13.617Z,108.50
2019-04-09T09:33:13.704Z,110.80
2019-04-09T09:34:17.388Z,109.00
2019-04-09T09:35:13.893Z,108.70
2019-04-09T09:36:14.080Z,109.10
2019-04-09T09:37:16.836Z,112.00
2019-04-09T09:51:36.841Z,88.50
2019-04-09T09:52:36.770Z,100.00
2019-04-09T09:53:37.737Z,107.20
2019-04-09T09:54:38.343Z,113.70
2019-04-09T09:55:37.017Z,117.00
2019-04-09T09:56:37.514Z,118.20
2019-04-09T09:57:41.370Z,113.50
2019-04-09T09:58:37.381Z,111.80
2019-04-09T09:59:36.796Z,111.00
2019-04-09T10:00:36.445Z,109.30
2019-04-09T10:01:38.215Z,116.00
2019-04-09T10:02:37.839Z,112.30
2019-04-09T10:03:37.232Z,111.50
2019-04-09T10:04:36.799Z,116.80
2019-04-09T10:05:37.167Z,112.00
2019-04-09T10:06:36.983Z,114.70
2019-04-09T10:07:50.366Z,109.30
2019-04-09T10:08:36.593Z,109.50
2019-04-09T10:09:36.096Z,114.30
2019-04-09T10:10:36.147Z,107.80
2019-04-09T10:11:38.908Z,108.20
2019-04-09T10:12:40.889Z,113.80
2019-04-09T10:13:35.957Z,110.00
2019-04-09T10:14:36.181Z,106.20
2019-04-09T10:15:40.151Z,112.20
2019-04-09T10:16:38.971Z,113.10
2019-04-09T10:17:39.262Z,112.00
2019-04-09T10:18:39.392Z,111.60
2019-04-09T10:19:35.979Z,111.30
2019-04-09T10:20:37.918Z,112.00
2019-04-09T10:21:35.638Z,110.50
2019-04-09T10:22:35.598Z,111.40
2019-04-09T10:23:35.565Z,108.80
2019-04-09T10:24:38.370Z,109.20
2019-04-09T10:25:35.556Z,111.60
2019-04-09T10:26:37.369Z,108.40
2019-04-09T10:27:35.414Z,110.10
2019-04-09T10:28:35.701Z,111.10
2019-04-09T10:29:44.034Z,109.40
2019-04-09T10:31:45.401Z,111.50
2019-04-09T10:32:40.288Z,109.10
2019-04-09T10:33:41.439Z,110.60
2019-04-09T10:34:39.772Z,106.70
2019-04-09T10:35:40.389Z,105.20
2019-04-09T10:36:39.539Z,109.90
2019-04-09T10:37:39.500Z,110.70
2019-04-09T10:38:39.458Z,106.90
2019-04-09T10:39:39.474Z,107.50
2019-04-09T10:40:40.560Z,107.80
2019-04-09T10:41:46.164Z,107.20
2019-04-09T10:42:39.917Z,108.00
2019-04-09T10:43:41.916Z,106.20
2019-04-09T10:44:41.208Z,108.20
2019-04-09T10:45:39.194Z,106.10
2019-04-09T10:46:40.008Z,106.50
2019-04-09T10:47:41.886Z,107.40
2019-04-09T10:48:43.843Z,107.70
2019-04-09T10:49:39.800Z,108.70
2019-04-09T10:50:41.872Z,107.50
2019-04-09T10:51:41.361Z,110.30
2019-04-09T10:52:39.568Z,112.30
2019-04-09T10:53:39.623Z,111.80
2019-04-09T10:54:43.577Z,113.80
2019-04-09T10:55:39.560Z,112.40
2019-04-09T10:56:38.784Z,113.00
2019-04-09T10:57:39.679Z,113.80
2019-04-09T10:58:38.708Z,113.70
2019-04-09T10:59:39.609Z,110.20
2019-04-09T11:00:40.003Z,113.50
2019-04-09T11:01:42.892Z,115.40
2019-04-09T11:02:38.839Z,115.10
2019-04-09T11:03:39.419Z,115.70
2019-04-09T11:04:41.815Z,114.70
2019-04-09T11:05:38.447Z,114.20
2019-04-09T11:06:39.132Z,116.30
2019-04-09T11:07:38.396Z,114.40
2019-04-09T11:08:39.908Z,111.90
2019-04-09T11:09:38.911Z,111.30
2019-04-09T11:10:38.286Z,110.40
2019-04-09T11:11:39.298Z,111.00
2019-04-09T11:12:39.253Z,109.10
2019-04-09T11:13:38.416Z,111.80
2019-04-09T11:14:43.014Z,110.00
2019-04-09T11:15:38.876Z,109.80
2019-04-09T11:16:38.117Z,109.30
2019-04-09T11:17:40.013Z,111.80
2019-04-09T11:18:37.961Z,109.00
2019-04-09T11:19:37.930Z,107.10
2019-04-09T11:20:37.891Z,108.40
2019-04-09T11:21:40.862Z,109.10
2019-04-09T11:22:38.565Z,112.30
2019-04-09T11:23:37.790Z,109.30
2019-04-09T11:24:37.794Z,109.00
2019-04-09T11:25:38.780Z,109.40
2019-04-09T11:26:41.854Z,112.80
2019-04-09T11:27:37.630Z,108.20
2019-04-09T11:28:38.279Z,107.20
2019-04-09T11:29:37.549Z,108.50
2019-04-09T11:30:39.134Z,109.70
2019-04-09T11:31:45.343Z,110.50
2019-04-09T11:32:38.170Z,110.90
2019-04-09T11:33:39.179Z,109.20
2019-04-09T11:34:37.564Z,109.50
2019-04-09T11:35:37.330Z,109.60
2019-04-09T11:36:37.293Z,109.60
2019-04-09T11:37:37.250Z,109.40
2019-04-09T11:38:37.467Z,108.40
2019-04-09T11:39:37.180Z,107.30
2019-04-09T11:40:37.142Z,109.80
2019-04-09T11:41:37.106Z,108.20
2019-04-09T11:42:37.064Z,106.50
2019-04-09T11:43:37.029Z,108.00
2019-04-09T11:44:37.354Z,106.70
2019-04-09T11:45:37.682Z,107.00
2019-04-09T11:46:36.923Z,105.50
2019-04-09T11:47:36.882Z,104.90
2019-04-09T11:48:36.844Z,107.50
2019-04-09T11:49:36.814Z,108.20
2019-04-09T11:50:36.767Z,104.10
2019-04-09T11:51:37.478Z,104.40
2019-04-09T11:52:36.696Z,103.00
2019-04-09T11:53:36.664Z,107.70
2019-04-09T11:54:36.618Z,104.30
2019-04-09T11:55:37.566Z,106.20
2019-04-09T11:56:36.551Z,102.60
2019-04-09T11:57:37.794Z,104.70
2019-04-09T11:58:36.484Z,102.70
2019-04-09T11:59:37.256Z,103.30
2019-04-09T12:00:36.399Z,100.70
2019-04-09T12:01:36.622Z,99.20
2019-04-09T12:02:36.700Z,98.90
2019-04-09T12:03:36.287Z,100.20
2019-04-09T12:04:36.257Z,99.60
2019-04-09T12:05:36.447Z,97.50
2019-04-09T12:06:36.184Z,97.40
2019-04-09T12:07:36.143Z,98.00
2019-04-09T12:08:36.960Z,96.70
2019-04-09T12:09:36.064Z,96.20
2019-04-09T12:10:36.506Z,96.00
2019-04-09T12:11:36.711Z,95.90
2019-04-09T12:12:36.039Z,96.10
2019-04-09T12:13:35.917Z,98.00
2019-04-09T12:14:36.052Z,95.90
2019-04-09T12:15:35.846Z,94.60
2019-04-09T12:16:35.847Z,97.30
2019-04-09T12:17:35.791Z,97.40
2019-04-09T12:18:35.869Z,97.80
2019-04-09T12:19:36.725Z,95.50
2019-04-09T12:20:36.242Z,97.90
2019-04-09T12:21:35.622Z,98.60
2019-04-09T12:22:36.260Z,96.20
2019-04-09T12:23:35.553Z,97.50
2019-04-09T12:24:35.542Z,98.70
2019-04-09T12:25:35.818Z,96.70
2019-04-09T12:26:35.439Z,98.10
2019-04-09T12:27:36.137Z,98.20
2019-04-09T12:28:35.370Z,99.40
2019-04-09T12:29:35.992Z,99.10
2019-04-09T12:30:35.801Z,97.70
2019-04-09T12:31:36.257Z,98.10
2019-04-09T12:32:35.605Z,98.00
2019-04-09T12:33:35.727Z,97.30
2019-04-09T12:34:35.147Z,97.60
2019-04-09T12:35:36.056Z,99.70
2019-04-09T12:36:35.150Z,103.30
2019-04-09T12:37:35.051Z,103.40
2019-04-09T12:38:35.600Z,100.50
2019-04-09T12:39:35.906Z,101.10
2019-04-09T12:40:35.014Z,102.30
2019-04-09T12:41:35.335Z,100.60
2019-04-09T12:42:34.877Z,101.50
2019-04-09T12:43:34.876Z,102.00
2019-04-09T12:44:34.781Z,102.60
2019-04-09T12:45:34.743Z,103.50
2019-04-09T12:46:35.390Z,104.30
2019-04-09T12:47:34.690Z,103.20
2019-04-09T12:48:34.830Z,103.40
2019-04-09T12:49:35.652Z,103.20
2019-04-09T12:50:34.573Z,102.40
2019-04-09T12:51:35.293Z,100.60
2019-04-09T12:52:35.458Z,98.80
2019-04-09T12:53:34.451Z,99.00
2019-04-09T12:54:34.720Z,102.00
2019-04-09T12:55:34.391Z,101.90
2019-04-09T12:56:35.291Z,99.80
2019-04-09T12:57:34.315Z,95.20
2019-04-09T12:58:34.692Z,96.40
2019-04-09T12:59:34.948Z,97.60
2019-04-09T13:00:34.200Z,95.70
2019-04-09T13:01:34.165Z,94.20
2019-04-09T13:02:36.415Z,96.00
2019-04-09T13:03:34.173Z,97.20
2019-04-09T13:04:34.054Z,94.20
2019-04-09T13:05:34.977Z,91.80
2019-04-09T13:06:33.980Z,93.70
2019-04-09T13:07:34.128Z,91.80
2019-04-09T13:08:34.053Z,90.50
2019-04-09T13:09:33.875Z,90.90
2019-04-09T13:10:33.843Z,89.60
2019-04-09T13:11:34.829Z,89.80
2019-04-09T13:12:33.941Z,88.30
2019-04-09T13:13:34.832Z,88.40